sensor_id;sensor_type;location;lat;lon;timestamp;P1;durP1;ratioP1;P2;durP2;ratioP2
59167;SDS011;44948;55.046;73.266;2022-07-04T00:00:38;6.05;;;2.00;;
59167;SDS011;44948;55.046;73.266;2022-07-04T00:02:30;4.45;;;1.65;;
59167;SDS011;44948;55.046;73.266;2022-07-04T00:04:13;3.47;;;1.73;;
59167;SDS011;44948;55.046;73.266;2022-07-04T00:05:56;5.45;;;1.23;;
59167;SDS011;44948;55.046;73.266;2022-07-04T00:07:45;2.67;;;1.38;;
59167;SDS011;44948;55.046;73.266;2022-07-04T00:09:29;4.30;;;1.48;;
59167;SDS011;44948;55.046;73.266;2022-07-04T00:11:15;4.32;;;1.63;;
59167;SDS011;44948;55.046;73.266;2022-07-04T00:13:00;7.53;;;1.30;;
59167;SDS011;44948;55.046;73.266;2022-07-04T00:14:43;9.32;;;1.45;;
59167;SDS011;44948;55.046;73.266;2022-07-04T00:16:29;3.67;;;1.35;;
59167;SDS011;44948;55.046;73.266;2022-07-04T00:18:18;4.07;;;1.50;;
59167;SDS011;44948;55.046;73.266;2022-07-04T00:20:07;1.98;;;1.52;;
59167;SDS011;44948;55.046;73.266;2022-07-04T00:21:52;2.35;;;1.20;;
59167;SDS011;44948;55.046;73.266;2022-07-04T00:23:37;3.30;;;1.30;;
59167;SDS011;44948;55.046;73.266;2022-07-04T00:25:23;3.05;;;1.50;;
59167;SDS011;44948;55.046;73.266;2022-07-04T00:27:09;4.80;;;1.30;;
59167;SDS011;44948;55.046;73.266;2022-07-04T00:28:54;3.80;;;1.40;;
59167;SDS011;44948;55.046;73.266;2022-07-04T00:30:39;3.88;;;1.40;;
59167;SDS011;44948;55.046;73.266;2022-07-04T00:32:22;3.90;;;1.55;;
59167;SDS011;44948;55.046;73.266;2022-07-04T00:34:15;4.65;;;1.50;;
59167;SDS011;44948;55.046;73.266;2022-07-04T00:35:58;4.07;;;1.58;;
59167;SDS011;44948;55.046;73.266;2022-07-04T00:37:45;7.07;;;1.40;;
59167;SDS011;44948;55.046;73.266;2022-07-04T00:39:29;6.68;;;1.60;;
59167;SDS011;44948;55.046;73.266;2022-07-04T00:41:12;3.80;;;1.50;;
59167;SDS011;44948;55.046;73.266;2022-07-04T00:43:06;2.65;;;1.60;;
59167;SDS011;44948;55.046;73.266;2022-07-04T00:45:08;4.93;;;1.65;;
59167;SDS011;44948;55.046;73.266;2022-07-04T00:46:56;6.07;;;1.52;;
59167;SDS011;44948;55.046;73.266;2022-07-04T00:48:55;5.60;;;1.60;;
59167;SDS011;44948;55.046;73.266;2022-07-04T00:50:44;5.25;;;1.60;;
59167;SDS011;44948;55.046;73.266;2022-07-04T00:52:30;4.15;;;1.50;;
59167;SDS011;44948;55.046;73.266;2022-07-04T00:54:14;5.97;;;1.70;;
59167;SDS011;44948;55.046;73.266;2022-07-04T00:56:01;3.88;;;1.58;;
59167;SDS011;44948;55.046;73.266;2022-07-04T00:57:51;2.50;;;1.20;;
59167;SDS011;44948;55.046;73.266;2022-07-04T00:59:33;2.40;;;1.48;;
59167;SDS011;44948;55.046;73.266;2022-07-04T01:01:22;5.82;;;1.75;;
59167;SDS011;44948;55.046;73.266;2022-07-04T01:03:12;3.45;;;1.50;;
59167;SDS011;44948;55.046;73.266;2022-07-04T01:04:57;8.20;;;1.67;;
59167;SDS011;44948;55.046;73.266;2022-07-04T01:06:43;5.82;;;1.30;;
59167;SDS011;44948;55.046;73.266;2022-07-04T01:08:29;8.77;;;2.22;;
59167;SDS011;44948;55.046;73.266;2022-07-04T01:10:12;2.63;;;1.30;;
59167;SDS011;44948;55.046;73.266;2022-07-04T01:12:00;3.03;;;1.40;;
59167;SDS011;44948;55.046;73.266;2022-07-04T01:13:48;4.90;;;1.98;;
59167;SDS011;44948;55.046;73.266;2022-07-04T01:15:34;6.18;;;1.70;;
59167;SDS011;44948;55.046;73.266;2022-07-04T01:17:25;6.85;;;1.40;;
59167;SDS011;44948;55.046;73.266;2022-07-04T01:19:19;6.35;;;1.60;;
59167;SDS011;44948;55.046;73.266;2022-07-04T01:21:15;7.07;;;1.40;;
59167;SDS011;44948;55.046;73.266;2022-07-04T01:23:00;4.93;;;1.50;;
59167;SDS011;44948;55.046;73.266;2022-07-04T01:24:45;7.95;;;2.15;;
59167;SDS011;44948;55.046;73.266;2022-07-04T01:26:36;3.83;;;1.40;;
59167;SDS011;44948;55.046;73.266;2022-07-04T01:28:27;6.07;;;1.65;;
59167;SDS011;44948;55.046;73.266;2022-07-04T01:30:12;2.78;;;1.30;;
59167;SDS011;44948;55.046;73.266;2022-07-04T01:32:08;4.05;;;1.60;;
59167;SDS011;44948;55.046;73.266;2022-07-04T01:33:56;7.90;;;1.40;;
59167;SDS011;44948;55.046;73.266;2022-07-04T01:35:44;9.18;;;1.60;;
59167;SDS011;44948;55.046;73.266;2022-07-04T01:37:35;4.50;;;1.40;;
59167;SDS011;44948;55.046;73.266;2022-07-04T01:39:23;3.83;;;1.50;;
59167;SDS011;44948;55.046;73.266;2022-07-04T01:41:12;2.28;;;1.30;;
59167;SDS011;44948;55.046;73.266;2022-07-04T01:43:00;5.18;;;1.65;;
59167;SDS011;44948;55.046;73.266;2022-07-04T01:44:51;3.38;;;1.52;;
59167;SDS011;44948;55.046;73.266;2022-07-04T01:46:42;7.68;;;1.63;;
59167;SDS011;44948;55.046;73.266;2022-07-04T01:48:31;4.70;;;1.70;;
59167;SDS011;44948;55.046;73.266;2022-07-04T01:50:17;6.90;;;1.50;;
59167;SDS011;44948;55.046;73.266;2022-07-04T01:52:06;2.53;;;1.60;;
59167;SDS011;44948;55.046;73.266;2022-07-04T01:53:48;9.93;;;1.75;;
59167;SDS011;44948;55.046;73.266;2022-07-04T01:55:34;8.15;;;1.30;;
59167;SDS011;44948;55.046;73.266;2022-07-04T01:57:16;4.07;;;1.30;;
59167;SDS011;44948;55.046;73.266;2022-07-04T01:58:59;5.38;;;1.35;;
59167;SDS011;44948;55.046;73.266;2022-07-04T02:00:50;6.68;;;1.85;;
59167;SDS011;44948;55.046;73.266;2022-07-04T02:04:39;5.10;;;1.50;;
59167;SDS011;44948;55.046;73.266;2022-07-04T02:06:25;5.95;;;1.40;;
59167;SDS011;44948;55.046;73.266;2022-07-04T02:08:11;5.78;;;1.75;;
59167;SDS011;44948;55.046;73.266;2022-07-04T02:09:53;5.80;;;1.60;;
59167;SDS011;44948;55.046;73.266;2022-07-04T02:11:44;2.47;;;1.50;;
59167;SDS011;44948;55.046;73.266;2022-07-04T02:13:46;4.75;;;1.48;;
59167;SDS011;44948;55.046;73.266;2022-07-04T02:15:35;6.43;;;1.60;;
59167;SDS011;44948;55.046;73.266;2022-07-04T02:17:26;4.63;;;1.77;;
59167;SDS011;44948;55.046;73.266;2022-07-04T02:19:14;4.43;;;1.38;;
59167;SDS011;44948;55.046;73.266;2022-07-04T02:21:06;5.72;;;1.55;;
59167;SDS011;44948;55.046;73.266;2022-07-04T02:22:51;4.10;;;1.75;;
59167;SDS011;44948;55.046;73.266;2022-07-04T02:24:34;4.40;;;1.65;;
59167;SDS011;44948;55.046;73.266;2022-07-04T02:26:19;14.88;;;4.03;;
59167;SDS011;44948;55.046;73.266;2022-07-04T02:28:04;9.32;;;3.25;;
59167;SDS011;44948;55.046;73.266;2022-07-04T02:29:49;10.98;;;3.83;;
59167;SDS011;44948;55.046;73.266;2022-07-04T02:33:18;9.85;;;4.07;;
59167;SDS011;44948;55.046;73.266;2022-07-04T02:35:09;12.18;;;4.05;;
59167;SDS011;44948;55.046;73.266;2022-07-04T02:37:00;11.85;;;4.13;;
59167;SDS011;44948;55.046;73.266;2022-07-04T02:38:43;13.15;;;4.55;;
59167;SDS011;44948;55.046;73.266;2022-07-04T02:40:31;14.77;;;4.40;;
59167;SDS011;44948;55.046;73.266;2022-07-04T02:42:23;19.70;;;6.47;;
59167;SDS011;44948;55.046;73.266;2022-07-04T02:44:18;25.90;;;8.20;;
59167;SDS011;44948;55.046;73.266;2022-07-04T02:46:03;26.00;;;7.30;;
59167;SDS011;44948;55.046;73.266;2022-07-04T02:47:48;23.55;;;7.93;;
59167;SDS011;44948;55.046;73.266;2022-07-04T02:49:31;20.05;;;7.07;;
59167;SDS011;44948;55.046;73.266;2022-07-04T02:51:16;18.40;;;5.30;;
59167;SDS011;44948;55.046;73.266;2022-07-04T02:53:04;21.90;;;9.32;;
59167;SDS011;44948;55.046;73.266;2022-07-04T02:54:49;21.52;;;8.98;;
59167;SDS011;44948;55.046;73.266;2022-07-04T02:56:37;22.10;;;9.23;;
59167;SDS011;44948;55.046;73.266;2022-07-04T02:58:26;25.52;;;10.20;;
59167;SDS011;44948;55.046;73.266;2022-07-04T03:00:09;22.80;;;9.25;;
59167;SDS011;44948;55.046;73.266;2022-07-04T03:01:55;26.73;;;11.30;;
59167;SDS011;44948;55.046;73.266;2022-07-04T03:03:46;40.58;;;16.30;;
59167;SDS011;44948;55.046;73.266;2022-07-04T03:05:39;46.53;;;19.17;;
59167;SDS011;44948;55.046;73.266;2022-07-04T03:07:30;45.35;;;20.08;;
59167;SDS011;44948;55.046;73.266;2022-07-04T03:09:21;47.28;;;20.02;;
59167;SDS011;44948;55.046;73.266;2022-07-04T03:11:11;56.17;;;20.23;;
59167;SDS011;44948;55.046;73.266;2022-07-04T03:12:54;54.08;;;19.95;;
59167;SDS011;44948;55.046;73.266;2022-07-04T03:14:42;23.85;;;8.23;;
59167;SDS011;44948;55.046;73.266;2022-07-04T03:16:33;27.23;;;10.45;;
59167;SDS011;44948;55.046;73.266;2022-07-04T03:18:26;21.10;;;8.82;;
59167;SDS011;44948;55.046;73.266;2022-07-04T03:20:17;15.57;;;7.20;;
59167;SDS011;44948;55.046;73.266;2022-07-04T03:22:05;20.88;;;8.30;;
59167;SDS011;44948;55.046;73.266;2022-07-04T03:23:56;25.77;;;10.18;;
59167;SDS011;44948;55.046;73.266;2022-07-04T03:25:42;24.55;;;9.65;;
59167;SDS011;44948;55.046;73.266;2022-07-04T03:27:31;19.63;;;8.45;;
59167;SDS011;44948;55.046;73.266;2022-07-04T03:29:20;21.83;;;7.50;;
59167;SDS011;44948;55.046;73.266;2022-07-04T03:31:05;9.63;;;4.75;;
59167;SDS011;44948;55.046;73.266;2022-07-04T03:34:36;8.23;;;2.80;;
59167;SDS011;44948;55.046;73.266;2022-07-04T03:36:22;3.95;;;2.15;;
59167;SDS011;44948;55.046;73.266;2022-07-04T03:38:13;5.90;;;1.77;;
59167;SDS011;44948;55.046;73.266;2022-07-04T03:40:02;4.05;;;1.58;;
59167;SDS011;44948;55.046;73.266;2022-07-04T03:41:48;8.07;;;1.75;;
59167;SDS011;44948;55.046;73.266;2022-07-04T03:43:37;3.10;;;1.10;;
59167;SDS011;44948;55.046;73.266;2022-07-04T03:45:29;1.40;;;0.90;;
59167;SDS011;44948;55.046;73.266;2022-07-04T03:47:15;2.55;;;1.33;;
59167;SDS011;44948;55.046;73.266;2022-07-04T03:48:58;4.65;;;1.30;;
59167;SDS011;44948;55.046;73.266;2022-07-04T03:50:41;3.78;;;1.30;;
59167;SDS011;44948;55.046;73.266;2022-07-04T03:54:40;2.67;;;1.20;;
59167;SDS011;44948;55.046;73.266;2022-07-04T03:56:26;3.38;;;1.40;;
59167;SDS011;44948;55.046;73.266;2022-07-04T03:58:08;2.70;;;1.20;;
59167;SDS011;44948;55.046;73.266;2022-07-04T03:59:54;1.08;;;0.80;;
59167;SDS011;44948;55.046;73.266;2022-07-04T04:01:39;4.47;;;1.35;;
59167;SDS011;44948;55.046;73.266;2022-07-04T04:03:22;2.88;;;1.33;;
59167;SDS011;44948;55.046;73.266;2022-07-04T04:05:23;6.22;;;1.40;;
59167;SDS011;44948;55.046;73.266;2022-07-04T04:07:12;5.05;;;0.90;;
59167;SDS011;44948;55.046;73.266;2022-07-04T04:08:56;1.35;;;0.80;;
59167;SDS011;44948;55.046;73.266;2022-07-04T04:11:03;1.85;;;1.20;;
59167;SDS011;44948;55.046;73.266;2022-07-04T04:12:48;4.53;;;1.17;;
59167;SDS011;44948;55.046;73.266;2022-07-04T04:14:37;5.53;;;1.02;;
59167;SDS011;44948;55.046;73.266;2022-07-04T04:16:22;1.65;;;1.05;;
59167;SDS011;44948;55.046;73.266;2022-07-04T04:18:10;4.65;;;1.25;;
59167;SDS011;44948;55.046;73.266;2022-07-04T04:20:01;3.08;;;1.30;;
59167;SDS011;44948;55.046;73.266;2022-07-04T04:21:47;1.45;;;1.05;;
59167;SDS011;44948;55.046;73.266;2022-07-04T04:23:37;1.65;;;0.90;;
59167;SDS011;44948;55.046;73.266;2022-07-04T04:25:25;2.78;;;0.80;;
59167;SDS011;44948;55.046;73.266;2022-07-04T04:29:00;2.67;;;1.10;;
59167;SDS011;44948;55.046;73.266;2022-07-04T04:30:51;3.20;;;1.00;;
59167;SDS011;44948;55.046;73.266;2022-07-04T04:32:33;2.58;;;1.10;;
59167;SDS011;44948;55.046;73.266;2022-07-04T04:34:23;1.83;;;0.90;;
59167;SDS011;44948;55.046;73.266;2022-07-04T04:36:08;5.18;;;1.10;;
59167;SDS011;44948;55.046;73.266;2022-07-04T04:38:00;1.45;;;1.00;;
59167;SDS011;44948;55.046;73.266;2022-07-04T04:39:47;3.78;;;1.60;;
59167;SDS011;44948;55.046;73.266;2022-07-04T04:41:37;4.30;;;1.25;;
59167;SDS011;44948;55.046;73.266;2022-07-04T04:43:22;1.67;;;0.82;;
59167;SDS011;44948;55.046;73.266;2022-07-04T04:45:07;2.50;;;1.23;;
59167;SDS011;44948;55.046;73.266;2022-07-04T04:46:55;2.00;;;1.02;;
59167;SDS011;44948;55.046;73.266;2022-07-04T04:48:38;4.32;;;0.90;;
59167;SDS011;44948;55.046;73.266;2022-07-04T04:50:24;4.03;;;1.30;;
59167;SDS011;44948;55.046;73.266;2022-07-04T04:52:15;6.45;;;1.00;;
59167;SDS011;44948;55.046;73.266;2022-07-04T04:54:09;1.45;;;0.75;;
59167;SDS011;44948;55.046;73.266;2022-07-04T04:55:56;2.00;;;1.10;;
59167;SDS011;44948;55.046;73.266;2022-07-04T04:57:42;2.22;;;1.17;;
59167;SDS011;44948;55.046;73.266;2022-07-04T04:59:32;1.98;;;0.93;;
59167;SDS011;44948;55.046;73.266;2022-07-04T05:01:23;3.08;;;1.13;;
59167;SDS011;44948;55.046;73.266;2022-07-04T05:03:12;3.28;;;0.90;;
59167;SDS011;44948;55.046;73.266;2022-07-04T05:05:01;2.55;;;1.30;;
59167;SDS011;44948;55.046;73.266;2022-07-04T05:06:53;2.00;;;1.00;;
59167;SDS011;44948;55.046;73.266;2022-07-04T05:08:44;4.50;;;1.33;;
59167;SDS011;44948;55.046;73.266;2022-07-04T05:10:30;2.88;;;1.33;;
59167;SDS011;44948;55.046;73.266;2022-07-04T05:12:24;2.92;;;1.27;;
59167;SDS011;44948;55.046;73.266;2022-07-04T05:14:24;4.43;;;1.48;;
59167;SDS011;44948;55.046;73.266;2022-07-04T05:16:12;3.35;;;1.27;;
59167;SDS011;44948;55.046;73.266;2022-07-04T05:17:56;10.50;;;2.78;;
59167;SDS011;44948;55.046;73.266;2022-07-04T05:19:42;7.35;;;2.95;;
59167;SDS011;44948;55.046;73.266;2022-07-04T05:21:38;15.88;;;5.90;;
59167;SDS011;44948;55.046;73.266;2022-07-04T05:23:52;7.10;;;1.77;;
59167;SDS011;44948;55.046;73.266;2022-07-04T05:25:37;5.22;;;1.95;;
59167;SDS011;44948;55.046;73.266;2022-07-04T05:27:26;7.95;;;3.17;;
59167;SDS011;44948;55.046;73.266;2022-07-04T05:29:12;11.70;;;2.75;;
59167;SDS011;44948;55.046;73.266;2022-07-04T05:31:12;9.18;;;2.67;;
59167;SDS011;44948;55.046;73.266;2022-07-04T05:33:00;8.40;;;2.85;;
59167;SDS011;44948;55.046;73.266;2022-07-04T05:34:48;8.35;;;2.83;;
59167;SDS011;44948;55.046;73.266;2022-07-04T05:36:33;10.55;;;2.63;;
59167;SDS011;44948;55.046;73.266;2022-07-04T05:38:18;7.07;;;2.10;;
59167;SDS011;44948;55.046;73.266;2022-07-04T05:40:12;6.38;;;1.70;;
59167;SDS011;44948;55.046;73.266;2022-07-04T05:41:58;4.28;;;1.60;;
59167;SDS011;44948;55.046;73.266;2022-07-04T05:43:43;8.57;;;1.60;;
59167;SDS011;44948;55.046;73.266;2022-07-04T05:45:28;5.70;;;1.67;;
59167;SDS011;44948;55.046;73.266;2022-07-04T05:47:18;4.88;;;1.70;;
59167;SDS011;44948;55.046;73.266;2022-07-04T05:49:11;8.65;;;2.25;;
59167;SDS011;44948;55.046;73.266;2022-07-04T05:50:59;11.35;;;2.33;;
59167;SDS011;44948;55.046;73.266;2022-07-04T05:52:57;8.23;;;2.38;;
59167;SDS011;44948;55.046;73.266;2022-07-04T05:54:52;11.35;;;2.00;;
59167;SDS011;44948;55.046;73.266;2022-07-04T05:56:41;7.43;;;1.98;;
59167;SDS011;44948;55.046;73.266;2022-07-04T05:58:28;7.47;;;2.17;;
59167;SDS011;44948;55.046;73.266;2022-07-04T06:00:13;13.82;;;2.53;;
59167;SDS011;44948;55.046;73.266;2022-07-04T06:02:01;10.38;;;1.88;;
59167;SDS011;44948;55.046;73.266;2022-07-04T06:03:49;9.23;;;2.75;;
59167;SDS011;44948;55.046;73.266;2022-07-04T06:05:37;8.90;;;2.45;;
59167;SDS011;44948;55.046;73.266;2022-07-04T06:07:22;11.20;;;2.33;;
59167;SDS011;44948;55.046;73.266;2022-07-04T06:09:10;7.43;;;1.55;;
59167;SDS011;44948;55.046;73.266;2022-07-04T06:10:56;29.30;;;26.02;;
59167;SDS011;44948;55.046;73.266;2022-07-04T06:12:38;4.38;;;2.85;;
59167;SDS011;44948;55.046;73.266;2022-07-04T06:14:31;1.60;;;1.10;;
59167;SDS011;44948;55.046;73.266;2022-07-04T06:16:20;6.22;;;1.40;;
59167;SDS011;44948;55.046;73.266;2022-07-04T06:18:05;3.55;;;1.13;;
59167;SDS011;44948;55.046;73.266;2022-07-04T06:19:55;3.50;;;1.15;;
59167;SDS011;44948;55.046;73.266;2022-07-04T06:21:40;6.03;;;1.20;;
59167;SDS011;44948;55.046;73.266;2022-07-04T06:23:27;8.20;;;1.63;;
59167;SDS011;44948;55.046;73.266;2022-07-04T06:25:22;4.78;;;1.60;;
59167;SDS011;44948;55.046;73.266;2022-07-04T06:27:16;5.13;;;1.13;;
59167;SDS011;44948;55.046;73.266;2022-07-04T06:29:07;9.15;;;1.33;;
59167;SDS011;44948;55.046;73.266;2022-07-04T06:31:01;5.25;;;1.30;;
59167;SDS011;44948;55.046;73.266;2022-07-04T06:34:36;6.95;;;1.27;;
59167;SDS011;44948;55.046;73.266;2022-07-04T06:36:43;4.63;;;1.13;;
59167;SDS011;44948;55.046;73.266;2022-07-04T06:38:29;2.88;;;1.08;;
59167;SDS011;44948;55.046;73.266;2022-07-04T06:40:15;1.55;;;1.02;;
59167;SDS011;44948;55.046;73.266;2022-07-04T06:42:01;2.35;;;1.17;;
59167;SDS011;44948;55.046;73.266;2022-07-04T06:43:49;2.28;;;1.00;;
59167;SDS011;44948;55.046;73.266;2022-07-04T06:45:37;2.75;;;1.15;;
59167;SDS011;44948;55.046;73.266;2022-07-04T06:47:35;2.45;;;0.95;;
59167;SDS011;44948;55.046;73.266;2022-07-04T06:49:21;1.27;;;0.93;;
59167;SDS011;44948;55.046;73.266;2022-07-04T06:51:10;4.63;;;1.38;;
59167;SDS011;44948;55.046;73.266;2022-07-04T06:52:58;3.78;;;2.13;;
59167;SDS011;44948;55.046;73.266;2022-07-04T06:54:52;4.22;;;1.40;;
59167;SDS011;44948;55.046;73.266;2022-07-04T06:56:38;3.33;;;1.30;;
59167;SDS011;44948;55.046;73.266;2022-07-04T06:58:23;4.32;;;1.70;;
59167;SDS011;44948;55.046;73.266;2022-07-04T07:00:09;2.88;;;1.02;;
59167;SDS011;44948;55.046;73.266;2022-07-04T07:01:59;2.03;;;1.38;;
59167;SDS011;44948;55.046;73.266;2022-07-04T07:03:42;2.50;;;1.55;;
59167;SDS011;44948;55.046;73.266;2022-07-04T07:05:26;2.72;;;1.23;;
59167;SDS011;44948;55.046;73.266;2022-07-04T07:07:15;1.88;;;1.10;;
59167;SDS011;44948;55.046;73.266;2022-07-04T07:09:02;4.70;;;1.48;;
59167;SDS011;44948;55.046;73.266;2022-07-04T07:10:52;3.22;;;1.30;;
59167;SDS011;44948;55.046;73.266;2022-07-04T07:12:38;2.70;;;1.10;;
59167;SDS011;44948;55.046;73.266;2022-07-04T07:14:20;5.47;;;1.23;;
59167;SDS011;44948;55.046;73.266;2022-07-04T07:16:06;3.85;;;1.20;;
59167;SDS011;44948;55.046;73.266;2022-07-04T07:17:54;3.63;;;1.30;;
59167;SDS011;44948;55.046;73.266;2022-07-04T07:19:39;6.15;;;1.60;;
59167;SDS011;44948;55.046;73.266;2022-07-04T07:21:28;2.47;;;1.23;;
59167;SDS011;44948;55.046;73.266;2022-07-04T07:23:10;5.32;;;1.50;;
59167;SDS011;44948;55.046;73.266;2022-07-04T07:24:59;2.88;;;1.30;;
59167;SDS011;44948;55.046;73.266;2022-07-04T07:26:47;3.42;;;1.20;;
59167;SDS011;44948;55.046;73.266;2022-07-04T07:28:30;5.82;;;1.10;;
59167;SDS011;44948;55.046;73.266;2022-07-04T07:30:15;3.88;;;1.23;;
59167;SDS011;44948;55.046;73.266;2022-07-04T07:32:01;3.78;;;1.48;;
59167;SDS011;44948;55.046;73.266;2022-07-04T07:33:47;2.92;;;1.00;;
59167;SDS011;44948;55.046;73.266;2022-07-04T07:35:33;7.88;;;1.45;;
59167;SDS011;44948;55.046;73.266;2022-07-04T07:37:23;2.72;;;0.93;;
59167;SDS011;44948;55.046;73.266;2022-07-04T07:39:18;4.88;;;1.10;;
59167;SDS011;44948;55.046;73.266;2022-07-04T07:41:01;3.75;;;1.13;;
59167;SDS011;44948;55.046;73.266;2022-07-04T07:42:49;2.85;;;1.50;;
59167;SDS011;44948;55.046;73.266;2022-07-04T07:44:37;6.30;;;1.35;;
59167;SDS011;44948;55.046;73.266;2022-07-04T07:46:30;3.22;;;1.40;;
59167;SDS011;44948;55.046;73.266;2022-07-04T07:48:20;3.00;;;1.30;;
59167;SDS011;44948;55.046;73.266;2022-07-04T07:50:07;4.82;;;1.13;;
59167;SDS011;44948;55.046;73.266;2022-07-04T07:51:56;5.68;;;1.27;;
59167;SDS011;44948;55.046;73.266;2022-07-04T07:53:44;7.07;;;1.40;;
59167;SDS011;44948;55.046;73.266;2022-07-04T07:55:35;4.10;;;1.20;;
59167;SDS011;44948;55.046;73.266;2022-07-04T07:57:21;5.00;;;1.17;;
59167;SDS011;44948;55.046;73.266;2022-07-04T07:59:08;2.95;;;1.10;;
59167;SDS011;44948;55.046;73.266;2022-07-04T08:00:59;5.70;;;1.83;;
59167;SDS011;44948;55.046;73.266;2022-07-04T08:02:45;5.70;;;1.90;;
59167;SDS011;44948;55.046;73.266;2022-07-04T08:04:51;5.78;;;2.13;;
59167;SDS011;44948;55.046;73.266;2022-07-04T08:06:45;2.83;;;1.40;;
59167;SDS011;44948;55.046;73.266;2022-07-04T08:08:33;9.48;;;1.95;;
59167;SDS011;44948;55.046;73.266;2022-07-04T08:10:23;2.10;;;1.30;;
59167;SDS011;44948;55.046;73.266;2022-07-04T08:12:09;5.90;;;1.70;;
59167;SDS011;44948;55.046;73.266;2022-07-04T08:13:54;7.57;;;1.50;;
59167;SDS011;44948;55.046;73.266;2022-07-04T08:15:38;16.02;;;7.95;;
59167;SDS011;44948;55.046;73.266;2022-07-04T08:17:28;18.67;;;9.45;;
59167;SDS011;44948;55.046;73.266;2022-07-04T08:19:16;6.75;;;1.55;;
59167;SDS011;44948;55.046;73.266;2022-07-04T08:21:07;4.10;;;1.40;;
59167;SDS011;44948;55.046;73.266;2022-07-04T08:22:58;7.97;;;1.88;;
59167;SDS011;44948;55.046;73.266;2022-07-04T08:24:40;6.13;;;1.30;;
59167;SDS011;44948;55.046;73.266;2022-07-04T08:26:29;3.15;;;1.30;;
59167;SDS011;44948;55.046;73.266;2022-07-04T08:28:20;4.20;;;1.40;;
59167;SDS011;44948;55.046;73.266;2022-07-04T08:30:09;2.15;;;1.10;;
59167;SDS011;44948;55.046;73.266;2022-07-04T08:31:58;3.28;;;1.20;;
59167;SDS011;44948;55.046;73.266;2022-07-04T08:33:46;4.22;;;1.20;;
59167;SDS011;44948;55.046;73.266;2022-07-04T08:35:31;3.28;;;1.20;;
59167;SDS011;44948;55.046;73.266;2022-07-04T08:37:19;2.15;;;1.10;;
59167;SDS011;44948;55.046;73.266;2022-07-04T08:39:07;5.43;;;1.50;;
59167;SDS011;44948;55.046;73.266;2022-07-04T08:40:55;2.30;;;1.50;;
59167;SDS011;44948;55.046;73.266;2022-07-04T08:42:42;2.72;;;1.40;;
59167;SDS011;44948;55.046;73.266;2022-07-04T08:44:28;5.80;;;2.53;;
59167;SDS011;44948;55.046;73.266;2022-07-04T08:46:16;7.75;;;2.30;;
59167;SDS011;44948;55.046;73.266;2022-07-04T08:48:03;4.03;;;2.03;;
59167;SDS011;44948;55.046;73.266;2022-07-04T08:50:01;7.00;;;2.13;;
59167;SDS011;44948;55.046;73.266;2022-07-04T08:52:05;6.10;;;2.42;;
59167;SDS011;44948;55.046;73.266;2022-07-04T08:53:52;8.75;;;3.30;;
59167;SDS011;44948;55.046;73.266;2022-07-04T08:55:47;4.93;;;2.67;;
59167;SDS011;44948;55.046;73.266;2022-07-04T08:57:53;8.57;;;3.42;;
59167;SDS011;44948;55.046;73.266;2022-07-04T08:59:57;4.80;;;1.70;;
59167;SDS011;44948;55.046;73.266;2022-07-04T09:01:40;7.38;;;4.03;;
59167;SDS011;44948;55.046;73.266;2022-07-04T09:03:30;6.10;;;3.75;;
59167;SDS011;44948;55.046;73.266;2022-07-04T09:05:21;2.78;;;1.30;;
59167;SDS011;44948;55.046;73.266;2022-07-04T09:07:06;2.67;;;1.63;;
59167;SDS011;44948;55.046;73.266;2022-07-04T09:09:00;3.30;;;1.33;;
59167;SDS011;44948;55.046;73.266;2022-07-04T09:10:50;3.63;;;1.10;;
59167;SDS011;44948;55.046;73.266;2022-07-04T09:12:42;2.22;;;1.25;;
59167;SDS011;44948;55.046;73.266;2022-07-04T09:14:27;4.07;;;1.60;;
59167;SDS011;44948;55.046;73.266;2022-07-04T09:16:18;1.65;;;1.33;;
59167;SDS011;44948;55.046;73.266;2022-07-04T09:18:06;2.83;;;1.30;;
59167;SDS011;44948;55.046;73.266;2022-07-04T09:22:10;1.85;;;1.08;;
59167;SDS011;44948;55.046;73.266;2022-07-04T09:23:57;3.65;;;2.40;;
59167;SDS011;44948;55.046;73.266;2022-07-04T09:25:42;2.42;;;1.17;;
59167;SDS011;44948;55.046;73.266;2022-07-04T09:27:34;1.85;;;1.30;;
59167;SDS011;44948;55.046;73.266;2022-07-04T09:29:21;5.10;;;1.33;;
59167;SDS011;44948;55.046;73.266;2022-07-04T09:31:15;6.82;;;3.00;;
59167;SDS011;44948;55.046;73.266;2022-07-04T09:33:03;7.25;;;3.30;;
59167;SDS011;44948;55.046;73.266;2022-07-04T09:34:55;8.60;;;3.33;;
59167;SDS011;44948;55.046;73.266;2022-07-04T09:36:40;8.63;;;2.70;;
59167;SDS011;44948;55.046;73.266;2022-07-04T09:38:28;7.30;;;3.20;;
59167;SDS011;44948;55.046;73.266;2022-07-04T09:40:30;6.28;;;2.80;;
59167;SDS011;44948;55.046;73.266;2022-07-04T09:42:39;6.65;;;2.55;;
59167;SDS011;44948;55.046;73.266;2022-07-04T09:46:21;3.17;;;1.70;;
59167;SDS011;44948;55.046;73.266;2022-07-04T09:48:15;2.50;;;1.80;;
59167;SDS011;44948;55.046;73.266;2022-07-04T09:50:36;4.38;;;2.20;;
59167;SDS011;44948;55.046;73.266;2022-07-04T09:52:11;5.60;;;2.72;;
59167;SDS011;44948;55.046;73.266;2022-07-04T09:53:59;3.50;;;1.90;;
59167;SDS011;44948;55.046;73.266;2022-07-04T09:56:08;3.88;;;2.10;;
59167;SDS011;44948;55.046;73.266;2022-07-04T09:57:54;3.53;;;2.00;;
59167;SDS011;44948;55.046;73.266;2022-07-04T09:59:50;3.78;;;2.00;;
59167;SDS011;44948;55.046;73.266;2022-07-04T10:01:35;3.60;;;1.73;;
59167;SDS011;44948;55.046;73.266;2022-07-04T10:03:27;2.25;;;1.55;;
59167;SDS011;44948;55.046;73.266;2022-07-04T10:05:19;2.67;;;1.70;;
59167;SDS011;44948;55.046;73.266;2022-07-04T10:07:06;3.90;;;1.63;;
59167;SDS011;44948;55.046;73.266;2022-07-04T10:08:48;2.58;;;1.40;;
59167;SDS011;44948;55.046;73.266;2022-07-04T10:10:36;2.92;;;1.95;;
59167;SDS011;44948;55.046;73.266;2022-07-04T10:12:26;4.03;;;2.80;;
59167;SDS011;44948;55.046;73.266;2022-07-04T10:14:17;6.67;;;4.17;;
59167;SDS011;44948;55.046;73.266;2022-07-04T10:16:07;4.53;;;2.20;;
59167;SDS011;44948;55.046;73.266;2022-07-04T10:17:59;4.18;;;1.83;;
59167;SDS011;44948;55.046;73.266;2022-07-04T10:19:41;2.63;;;1.52;;
59167;SDS011;44948;55.046;73.266;2022-07-04T10:21:28;2.22;;;1.17;;
59167;SDS011;44948;55.046;73.266;2022-07-04T10:23:13;2.90;;;1.20;;
59167;SDS011;44948;55.046;73.266;2022-07-04T10:25:00;3.25;;;1.20;;
59167;SDS011;44948;55.046;73.266;2022-07-04T10:26:49;4.18;;;1.40;;
59167;SDS011;44948;55.046;73.266;2022-07-04T10:28:37;1.98;;;1.27;;
59167;SDS011;44948;55.046;73.266;2022-07-04T10:30:30;2.10;;;1.50;;
59167;SDS011;44948;55.046;73.266;2022-07-04T10:32:23;2.70;;;2.00;;
59167;SDS011;44948;55.046;73.266;2022-07-04T10:34:08;4.90;;;2.50;;
59167;SDS011;44948;55.046;73.266;2022-07-04T10:35:57;3.30;;;1.67;;
59167;SDS011;44948;55.046;73.266;2022-07-04T10:38:01;4.55;;;2.55;;
59167;SDS011;44948;55.046;73.266;2022-07-04T10:39:54;4.43;;;3.15;;
59167;SDS011;44948;55.046;73.266;2022-07-04T10:47:55;2.92;;;1.60;;
59167;SDS011;44948;55.046;73.266;2022-07-04T10:49:42;1.90;;;1.60;;
59167;SDS011;44948;55.046;73.266;2022-07-04T10:53:24;4.93;;;2.05;;
59167;SDS011;44948;55.046;73.266;2022-07-04T10:55:11;3.83;;;2.28;;
59167;SDS011;44948;55.046;73.266;2022-07-04T10:59:13;3.45;;;2.40;;
59167;SDS011;44948;55.046;73.266;2022-07-04T11:01:14;2.67;;;1.83;;
59167;SDS011;44948;55.046;73.266;2022-07-04T11:03:16;1.80;;;1.40;;
59167;SDS011;44948;55.046;73.266;2022-07-04T11:05:10;1.85;;;1.50;;
59167;SDS011;44948;55.046;73.266;2022-07-04T11:07:02;2.23;;;1.47;;
59167;SDS011;44948;55.046;73.266;2022-07-04T11:11:23;3.25;;;2.20;;
59167;SDS011;44948;55.046;73.266;2022-07-04T11:13:29;2.83;;;1.50;;